الصفحة الرئيسية
METAR-TAF:

METAR-TAF

مطار :

Tivat, الجبل الأسود

دائرة عرض: 42-24N, خط طول: 018-44E, ارتفاع: 5 متر

مراقبة الطقس الحالي

تاريخ ووقت الإصدار 14 دقيقة قبل الساعة 21:00UTC
ريح 1 عقدةمن اتجاهات متغيرة
درجة الحرارة 14°درجة مئوية
الرطوبة 88%
ضغط 1016 hPa
الرؤية 10 كم أو أكثر
الغيوم لا تقل 1500 م ولا وجود لمزنة ركامية السحاب الأسود

METAR: LYTV 292100Z VRB01KT CAVOK 14/12 Q1016

زمن: 23:14 (21:14 UTC)

توقعات

تاريخ ووقت الإصدار 4ساعات و 14 دقيقة قبل الساعة 17:00UTC
التوقعات صالحة من29 الساعة 18 UTC إلى 30 الساعة 18 UTC
ريح 2 عقدةمن اتجاهات متغيرة
الرؤية 10 كم أو أكثر
غيوم قليلة على ارتفاع 5000 قدم
مؤقت
من 30 الساعة 09 UTC إلى 30 الساعة 18 UTC
ريح 15 عقدةمن اتجاهات متغيرة
الرؤية: 5000 متر
غيوم قليلة على ارتفاع 3000 قدم, مزنة ركامية.
غيوم مفككة على ارتفاع 4000 قدم
عاصفة رعدية, مطر خفيف

TAF: LYTV 291700Z 2918/3018 VRB02KT 9999 FEW050 TX23/3013Z TN10/3003Z TEMPO 3009/3018 VRB15KT 5000 -TSRA FEW030CB BKN040

أرصاد الطقس والتوقعات من أكثر من 4000 مطار (تقارير الطقس للمطار METAR والتنبؤ بالطقس بالمطارTAF).

المحطات المتاحة هي النقط الصفراء والحمراء على الخريطة.

حرك المؤشر فوق النقطة لمعرفة اسم المحطة.

ثم انقر لمعرفة أرصاد وتوقعات الطقس.

لتغيير الخارطة: اضغط على الأزرار الخضراء مع رمز الصليب الأسود للتكبير. على الزر الأخضر مع شرطة للتصغير، أو على الأسهم الخضراء للخرائط المجاورة.


METAR-TAF: